createdAt,value
2022-08-17T00:00:42.724Z,66.39
2022-08-17T00:05:53.766Z,62.53
2022-08-17T00:10:55.798Z,61.15
2022-08-17T00:16:01.310Z,61.67
2022-08-17T00:21:04.664Z,58.87
2022-08-17T00:26:12.502Z,59.65
2022-08-17T00:31:15.668Z,64.68
2022-08-17T00:36:17.331Z,64.48
2022-08-17T00:41:22.335Z,62.60
2022-08-17T00:46:36.295Z,61.50
2022-08-17T00:51:58.318Z,60.77
2022-08-17T00:57:21.185Z,57.54
2022-08-17T01:02:22.781Z,58.10
2022-08-17T01:07:26.427Z,60.14
2022-08-17T01:12:28.538Z,66.21
2022-08-17T01:17:29.702Z,65.96
2022-08-17T01:22:31.534Z,64.14
2022-08-17T01:27:34.506Z,62.75
2022-08-17T01:32:37.297Z,61.65
2022-08-17T01:37:41.747Z,60.82
2022-08-17T01:42:51.320Z,57.37
2022-08-17T01:47:53.654Z,59.01
2022-08-17T01:52:59.447Z,64.57
2022-08-17T01:58:00.654Z,64.59
2022-08-17T02:03:04.695Z,62.05
2022-08-17T02:08:06.588Z,61.73
2022-08-17T02:13:07.954Z,61.06
2022-08-17T02:18:09.884Z,60.36
2022-08-17T02:23:12.283Z,57.61
2022-08-17T02:28:14.639Z,58.21
2022-08-17T02:33:15.800Z,64.71
2022-08-17T02:38:16.985Z,63.27
2022-08-17T02:43:18.087Z,61.73
2022-08-17T02:48:29.728Z,61.56
2022-08-17T02:53:36.200Z,60.64
2022-08-17T02:58:37.702Z,57.63
2022-08-17T03:03:39.278Z,58.87
2022-08-17T03:08:40.377Z,66.09
2022-08-17T03:13:41.452Z,62.94
2022-08-17T03:18:42.667Z,61.37
2022-08-17T03:23:43.756Z,60.03
2022-08-17T03:28:45.669Z,57.33
2022-08-17T03:33:47.121Z,58.12
2022-08-17T03:38:48.327Z,60.13
2022-08-17T03:43:52.188Z,67.75
2022-08-17T03:49:12.614Z,65.25
2022-08-17T03:54:31.782Z,63.58
2022-08-17T03:59:34.152Z,62.61
2022-08-17T04:04:36.892Z,61.67
2022-08-17T04:09:38.025Z,58.86
2022-08-17T04:14:53.464Z,59.94
2022-08-17T04:19:56.150Z,67.88
2022-08-17T04:24:57.726Z,63.21
2022-08-17T04:30:01.017Z,61.75
2022-08-17T04:35:02.216Z,61.04
2022-08-17T04:40:22.349Z,60.12
2022-08-17T04:45:24.195Z,57.39
2022-08-17T04:50:25.420Z,58.89
2022-08-17T04:55:26.659Z,64.88
2022-08-17T05:00:27.762Z,62.90
2022-08-17T05:05:36.441Z,60.84
2022-08-17T05:10:38.196Z,57.75
2022-08-17T05:15:49.367Z,58.28
2022-08-17T05:20:51.225Z,64.17
2022-08-17T05:25:55.581Z,62.57
2022-08-17T05:30:59.511Z,60.58
2022-08-17T05:36:03.128Z,59.37
2022-08-17T05:41:07.076Z,54.64
2022-08-17T05:46:33.091Z,54.27
2022-08-17T05:51:46.856Z,51.60
2022-08-17T05:57:14.123Z,48.01
2022-08-17T06:02:21.777Z,47.62
2022-08-17T06:07:47.162Z,47.84
2022-08-17T06:13:07.100Z,43.99
2022-08-17T06:18:10.856Z,42.20
2022-08-17T06:23:23.948Z,41.27
2022-08-17T06:28:34.598Z,40.44
2022-08-17T06:33:38.635Z,39.35
2022-08-17T06:38:58.538Z,40.35
2022-08-17T06:44:12.860Z,40.17
2022-08-17T06:49:55.208Z,41.73
2022-08-17T06:55:05.791Z,39.10
2022-08-17T07:00:18.736Z,38.01
2022-08-17T07:05:24.192Z,36.90
2022-08-17T07:10:27.450Z,36.68
2022-08-17T07:15:42.159Z,35.99
2022-08-17T07:20:50.504Z,35.35
2022-08-17T07:25:52.058Z,34.84
2022-08-17T07:30:54.241Z,34.86
2022-08-17T07:35:57.339Z,34.55
2022-08-17T07:41:07.702Z,34.27
2022-08-17T07:46:44.513Z,34.85
2022-08-17T07:51:49.678Z,35.38
2022-08-17T07:57:09.804Z,35.47
2022-08-17T08:02:26.476Z,35.81
2022-08-17T08:07:48.163Z,36.62
2022-08-17T08:13:08.251Z,37.52
2022-08-17T08:18:39.666Z,38.01
2022-08-17T08:23:59.337Z,38.97
2022-08-17T08:29:22.331Z,39.59
2022-08-17T08:35:01.525Z,40.48
2022-08-17T08:40:26.747Z,41.73
2022-08-17T08:45:59.329Z,43.21
2022-08-17T08:51:06.615Z,43.56
2022-08-17T08:57:11.592Z,43.98
2022-08-17T09:02:19.515Z,44.18
2022-08-17T09:07:50.177Z,44.55
2022-08-17T09:13:14.610Z,44.72
2022-08-17T09:19:02.303Z,44.99
2022-08-17T09:24:13.341Z,45.73
2022-08-17T09:29:17.009Z,45.12
2022-08-17T09:34:31.960Z,45.23
2022-08-17T09:40:01.242Z,45.26
2022-08-17T09:45:24.168Z,45.17
2022-08-17T09:50:55.481Z,44.71
2022-08-17T09:56:25.288Z,45.00
2022-08-17T10:01:37.354Z,45.85
2022-08-17T10:06:52.084Z,45.95
2022-08-17T10:12:23.562Z,46.06
2022-08-17T10:18:08.931Z,46.46
2022-08-17T10:23:48.973Z,45.70
2022-08-17T10:29:05.869Z,45.24
2022-08-17T10:34:44.062Z,44.35
2022-08-17T10:40:01.751Z,44.04
2022-08-17T10:45:25.600Z,44.08
2022-08-17T10:51:06.850Z,43.04
2022-08-17T10:56:10.869Z,42.97
2022-08-17T11:01:12.769Z,42.85
2022-08-17T11:06:23.668Z,42.97
2022-08-17T11:11:45.050Z,42.52
2022-08-17T11:17:04.738Z,42.70
2022-08-17T11:22:33.804Z,42.48
2022-08-17T11:27:35.922Z,42.12
2022-08-17T11:32:54.641Z,41.46
2022-08-17T11:38:16.705Z,41.68
2022-08-17T11:43:48.362Z,42.06
2022-08-17T11:49:10.987Z,41.78
2022-08-17T11:54:34.628Z,41.13
2022-08-17T11:59:35.914Z,41.16
2022-08-17T12:04:37.165Z,41.36
2022-08-17T12:09:47.216Z,41.56
2022-08-17T12:15:11.026Z,41.71
2022-08-17T12:20:32.144Z,41.75
2022-08-17T12:25:37.064Z,41.80
2022-08-17T12:30:38.304Z,41.32
2022-08-17T12:35:39.523Z,41.08
2022-08-17T12:40:54.088Z,41.08
2022-08-17T12:46:00.690Z,41.48
2022-08-17T12:51:06.884Z,41.81
2022-08-17T12:56:11.205Z,41.86
2022-08-17T13:01:16.882Z,42.37
2022-08-17T13:06:36.918Z,42.19
2022-08-17T13:11:50.029Z,41.98
2022-08-17T13:16:59.632Z,41.89
2022-08-17T13:22:01.687Z,41.63
2022-08-17T13:27:11.560Z,41.42
2022-08-17T13:32:19.989Z,42.05
2022-08-17T13:37:30.009Z,42.38
2022-08-17T13:42:34.266Z,43.01
2022-08-17T13:48:15.643Z,43.10
2022-08-17T13:53:35.550Z,43.58
2022-08-17T13:58:51.425Z,43.26
2022-08-17T14:03:52.627Z,42.86
2022-08-17T14:08:55.114Z,42.76
2022-08-17T14:13:56.228Z,42.77
2022-08-17T14:18:57.965Z,41.86
2022-08-17T14:23:59.143Z,41.50
2022-08-17T14:29:00.988Z,41.80
2022-08-17T14:34:02.359Z,42.29
2022-08-17T14:39:06.101Z,42.82
2022-08-17T14:44:11.667Z,43.22
2022-08-17T14:49:14.819Z,43.48
2022-08-17T14:54:34.326Z,44.11
2022-08-17T14:59:35.714Z,44.03
2022-08-17T15:04:39.789Z,44.27
2022-08-17T15:09:43.601Z,44.56
2022-08-17T15:14:45.907Z,44.62
2022-08-17T15:19:47.070Z,44.91
2022-08-17T15:24:48.553Z,44.84
2022-08-17T15:29:50.214Z,44.52
2022-08-17T15:34:53.802Z,44.27
2022-08-17T15:39:55.247Z,44.19
2022-08-17T15:44:56.522Z,44.24
2022-08-17T15:50:00.157Z,44.74
2022-08-17T15:55:02.975Z,45.23
2022-08-17T16:00:07.123Z,45.31
2022-08-17T16:05:11.837Z,45.64
2022-08-17T16:10:19.014Z,45.86
2022-08-17T16:15:20.696Z,45.79
2022-08-17T16:20:21.864Z,45.39
2022-08-17T16:25:38.807Z,44.30
2022-08-17T16:30:49.012Z,44.10
2022-08-17T16:35:50.133Z,43.82
2022-08-17T16:40:51.265Z,44.14
2022-08-17T16:45:52.430Z,44.42
2022-08-17T16:51:02.005Z,44.76
2022-08-17T16:56:06.630Z,45.20
2022-08-17T17:01:07.821Z,45.75
2022-08-17T17:06:14.982Z,46.11
2022-08-17T17:11:25.050Z,46.51
2022-08-17T17:16:44.999Z,46.85
2022-08-17T17:22:08.354Z,46.91
2022-08-17T17:27:47.331Z,47.71
2022-08-17T17:32:54.573Z,48.28
2022-08-17T17:37:56.610Z,48.58
2022-08-17T17:43:09.442Z,48.94
2022-08-17T17:48:21.150Z,49.09
2022-08-17T17:53:43.366Z,49.22
2022-08-17T17:58:52.599Z,49.44
2022-08-17T18:04:31.355Z,49.79
2022-08-17T18:10:19.445Z,49.98
2022-08-17T18:15:51.533Z,50.28
2022-08-17T18:21:04.317Z,50.75
2022-08-17T18:26:05.905Z,51.24
2022-08-17T18:31:25.785Z,51.64
2022-08-17T18:36:33.001Z,51.86
2022-08-17T18:41:43.475Z,52.20
2022-08-17T18:46:44.629Z,52.50
2022-08-17T18:51:45.786Z,52.67
2022-08-17T18:57:06.842Z,53.09
2022-08-17T19:02:20.738Z,53.67
2022-08-17T19:07:38.575Z,53.57
2022-08-17T19:13:12.172Z,54.07
2022-08-17T19:18:23.348Z,54.68
2022-08-17T19:23:31.914Z,54.89
2022-08-17T19:28:44.849Z,55.08
2022-08-17T19:33:50.293Z,55.24
2022-08-17T19:39:16.998Z,55.50
2022-08-17T19:44:39.439Z,55.59
2022-08-17T19:50:25.808Z,56.01
2022-08-17T19:55:48.508Z,56.13
2022-08-17T20:00:51.527Z,56.94
2022-08-17T20:06:14.096Z,57.30
2022-08-17T20:11:24.004Z,56.98
2022-08-17T20:16:25.322Z,57.06
2022-08-17T20:21:43.961Z,57.33
2022-08-17T20:26:58.669Z,57.39
2022-08-17T20:32:00.137Z,57.74
2022-08-17T20:37:13.685Z,58.09
2022-08-17T20:42:14.690Z,58.39
2022-08-17T20:47:36.858Z,58.44
2022-08-17T20:52:48.521Z,58.63
2022-08-17T20:57:51.053Z,59.14
2022-08-17T21:03:21.226Z,59.74
2022-08-17T21:08:35.376Z,60.13
2022-08-17T21:13:36.403Z,60.84
2022-08-17T21:19:16.881Z,66.76
2022-08-17T21:24:55.847Z,66.31
2022-08-17T21:30:34.797Z,58.98
2022-08-17T21:36:13.426Z,57.79
2022-08-17T21:41:43.245Z,58.65
2022-08-17T21:46:48.613Z,59.36
2022-08-17T21:51:54.309Z,59.59
2022-08-17T21:56:55.716Z,59.65
2022-08-17T22:01:58.897Z,61.03
2022-08-17T22:07:03.599Z,66.51
2022-08-17T22:12:15.678Z,66.38
2022-08-17T22:17:22.915Z,62.90
2022-08-17T22:23:01.687Z,57.76
2022-08-17T22:28:04.533Z,56.85
2022-08-17T22:33:27.156Z,57.73
2022-08-17T22:38:30.757Z,59.03
2022-08-17T22:43:37.400Z,60.29
2022-08-17T22:48:47.896Z,66.08
2022-08-17T22:54:08.981Z,65.39
2022-08-17T22:59:29.512Z,62.96
2022-08-17T23:04:32.692Z,58.02
2022-08-17T23:09:35.247Z,57.33
2022-08-17T23:14:41.638Z,58.50
2022-08-17T23:19:44.330Z,59.39
2022-08-17T23:24:49.550Z,60.44
2022-08-17T23:29:50.701Z,66.37
2022-08-17T23:34:51.794Z,65.30
2022-08-17T23:39:52.990Z,62.40
2022-08-17T23:44:55.099Z,58.02
2022-08-17T23:49:56.412Z,58.01
2022-08-17T23:55:04.910Z,59.45
